createdAt,value
2023-03-12T00:01:13.717Z,4.19
2023-03-12T00:03:41.493Z,4.50
2023-03-12T00:06:11.010Z,4.42
2023-03-12T00:08:39.025Z,4.41
2023-03-12T00:11:26.720Z,4.26
2023-03-12T00:13:55.797Z,4.61
2023-03-12T00:16:25.506Z,4.35
2023-03-12T00:18:55.092Z,4.27
2023-03-12T00:21:22.831Z,4.26
2023-03-12T00:23:51.473Z,4.54
2023-03-12T00:26:20.148Z,4.58
2023-03-12T00:28:48.787Z,4.58
2023-03-12T00:31:18.445Z,4.48
2023-03-12T00:33:49.398Z,4.59
2023-03-12T00:36:17.436Z,4.56
2023-03-12T00:38:45.353Z,4.31
2023-03-12T00:41:13.048Z,4.52
2023-03-12T00:43:40.768Z,4.66
2023-03-12T00:46:08.512Z,4.43
2023-03-12T00:48:36.240Z,4.39
2023-03-12T00:51:05.826Z,4.46
2023-03-12T00:53:33.493Z,4.53
2023-03-12T00:56:01.120Z,4.40
2023-03-12T00:58:28.826Z,4.52
2023-03-12T01:00:56.508Z,4.14
2023-03-12T01:03:24.264Z,4.34
2023-03-12T01:05:55.698Z,4.21
2023-03-12T01:08:25.141Z,4.41
2023-03-12T01:10:53.032Z,4.29
2023-03-12T01:13:36.141Z,4.12
2023-03-12T01:16:03.870Z,4.30
2023-03-12T01:18:34.413Z,4.34
2023-03-12T01:21:02.088Z,4.43
2023-03-12T01:23:31.634Z,4.06
2023-03-12T01:25:59.490Z,4.53
2023-03-12T01:28:27.483Z,4.39
2023-03-12T01:30:55.189Z,4.35
2023-03-12T01:33:23.523Z,4.42
2023-03-12T01:35:51.427Z,4.29
2023-03-12T01:38:20.888Z,4.30
2023-03-12T01:40:50.075Z,4.21
2023-03-12T01:43:27.573Z,4.28
2023-03-12T01:46:24.919Z,4.25
2023-03-12T01:48:56.325Z,4.44
2023-03-12T01:51:27.156Z,4.23
2023-03-12T01:53:57.581Z,4.39
2023-03-12T01:56:28.701Z,4.17
2023-03-12T01:58:59.098Z,4.38
2023-03-12T02:01:27.227Z,4.67
2023-03-12T02:03:55.709Z,4.40
2023-03-12T02:06:27.610Z,4.46
2023-03-12T02:08:55.937Z,4.11
2023-03-12T02:11:23.602Z,4.52
2023-03-12T02:13:52.766Z,4.34
2023-03-12T02:16:21.121Z,4.21
2023-03-12T02:18:50.260Z,4.37
2023-03-12T02:21:23.450Z,4.40
2023-03-12T02:23:57.643Z,4.33
2023-03-12T02:26:27.816Z,4.55
2023-03-12T02:28:55.765Z,4.59
2023-03-12T02:31:25.748Z,4.84
2023-03-12T02:33:56.057Z,4.62
2023-03-12T02:36:23.776Z,4.48
2023-03-12T02:38:52.788Z,4.55
2023-03-12T02:41:23.540Z,4.66
2023-03-12T02:43:58.208Z,4.22
2023-03-12T02:46:26.382Z,4.64
2023-03-12T02:48:55.212Z,4.44
2023-03-12T02:51:22.886Z,4.09
2023-03-12T02:53:54.885Z,4.39
2023-03-12T02:56:23.589Z,4.24
2023-03-12T02:58:53.801Z,4.27
2023-03-12T03:01:21.995Z,4.54
2023-03-12T03:03:49.984Z,4.89
2023-03-12T03:06:18.326Z,4.08
2023-03-12T03:08:46.207Z,4.58
2023-03-12T03:11:14.454Z,4.41
2023-03-12T03:13:42.242Z,4.42
2023-03-12T03:16:12.466Z,4.78
2023-03-12T03:18:40.343Z,3.92
2023-03-12T03:21:09.432Z,4.44
2023-03-12T03:23:37.914Z,4.27
2023-03-12T03:26:05.897Z,4.66
2023-03-12T03:31:20.389Z,4.31
2023-03-12T03:33:48.096Z,4.21
2023-03-12T03:36:16.562Z,4.32
2023-03-12T03:38:49.296Z,4.56
2023-03-12T03:41:17.960Z,4.81
2023-03-12T03:43:45.678Z,4.52
2023-03-12T03:46:14.765Z,4.54
2023-03-12T03:48:44.186Z,4.78
2023-03-12T03:51:12.883Z,4.91
2023-03-12T03:53:41.302Z,4.86
2023-03-12T03:56:09.228Z,4.87
2023-03-12T03:58:36.939Z,4.86
2023-03-12T04:01:06.185Z,4.84
2023-03-12T04:03:37.079Z,4.66
2023-03-12T04:06:07.984Z,4.60
2023-03-12T04:08:37.243Z,4.80
2023-03-12T04:11:08.668Z,4.82
2023-03-12T04:13:36.551Z,4.95
2023-03-12T04:16:04.551Z,5.09
2023-03-12T04:18:32.377Z,5.07
2023-03-12T04:21:00.347Z,5.10
2023-03-12T04:23:29.586Z,4.75
2023-03-12T04:25:57.373Z,4.95
2023-03-12T04:28:25.222Z,4.60
2023-03-12T04:30:56.364Z,4.60
2023-03-12T04:33:24.097Z,4.82
2023-03-12T04:35:53.049Z,4.65
2023-03-12T04:38:21.379Z,4.97
2023-03-12T04:40:58.697Z,4.55
2023-03-12T04:43:26.483Z,4.79
2023-03-12T04:45:54.293Z,5.02
2023-03-12T04:48:22.057Z,4.82
2023-03-12T04:50:50.150Z,5.06
2023-03-12T04:53:17.883Z,5.07
2023-03-12T04:55:45.616Z,4.89
2023-03-12T04:58:14.773Z,4.60
2023-03-12T05:00:42.600Z,4.71
2023-03-12T05:03:10.454Z,4.94
2023-03-12T05:05:38.254Z,5.00
2023-03-12T05:08:06.617Z,4.70
2023-03-12T05:10:34.465Z,4.42
2023-03-12T05:13:02.166Z,4.72
2023-03-12T05:15:31.410Z,4.62
2023-03-12T05:17:59.130Z,4.62
2023-03-12T05:20:26.843Z,4.66
2023-03-12T05:22:54.549Z,5.02
2023-03-12T05:25:24.552Z,5.17
2023-03-12T05:27:52.235Z,4.85
2023-03-12T05:30:20.238Z,4.92
2023-03-12T05:32:49.347Z,4.96
2023-03-12T05:35:17.202Z,5.31
2023-03-12T05:37:45.057Z,5.19
2023-03-12T05:40:13.815Z,5.40
2023-03-12T05:42:41.490Z,5.02
2023-03-12T05:45:10.428Z,4.96
2023-03-12T05:47:38.124Z,5.38
2023-03-12T05:50:09.531Z,5.14
2023-03-12T05:52:37.298Z,5.23
2023-03-12T05:55:05.670Z,5.27
2023-03-12T05:57:33.361Z,5.44
2023-03-12T06:00:01.048Z,5.41
2023-03-12T06:02:28.858Z,5.45
2023-03-12T06:04:58.396Z,5.34
2023-03-12T06:07:27.869Z,5.26
2023-03-12T06:09:55.694Z,5.01
2023-03-12T06:12:23.382Z,5.33
2023-03-12T06:14:51.079Z,5.49
2023-03-12T06:17:18.762Z,5.88
2023-03-12T06:19:47.734Z,5.81
2023-03-12T06:22:15.407Z,5.65
2023-03-12T06:24:47.337Z,5.77
2023-03-12T06:27:15.119Z,5.62
2023-03-12T06:29:43.046Z,5.97
2023-03-12T06:32:10.726Z,5.82
2023-03-12T06:34:38.383Z,5.60
2023-03-12T06:37:06.284Z,5.87
2023-03-12T06:39:34.586Z,5.72
2023-03-12T06:42:03.704Z,5.96
2023-03-12T06:44:31.506Z,6.03
2023-03-12T06:46:59.189Z,6.01
2023-03-12T06:49:27.447Z,5.76
2023-03-12T06:51:57.097Z,6.08
2023-03-12T06:54:25.273Z,5.99
2023-03-12T06:56:53.160Z,6.27
2023-03-12T06:59:46.610Z,5.65
2023-03-12T07:02:15.362Z,6.01
2023-03-12T07:04:43.214Z,6.30
2023-03-12T07:07:11.957Z,6.16
2023-03-12T07:09:39.728Z,6.12
2023-03-12T07:12:07.967Z,6.30
2023-03-12T07:14:37.170Z,6.19
2023-03-12T07:17:05.096Z,6.14
2023-03-12T07:19:32.938Z,6.24
2023-03-12T07:22:00.641Z,6.57
2023-03-12T07:24:28.346Z,6.50
2023-03-12T07:26:56.106Z,6.51
2023-03-12T07:29:23.866Z,6.82
2023-03-12T07:31:52.945Z,6.43
2023-03-12T07:34:20.694Z,7.04
2023-03-12T07:36:48.633Z,6.62
2023-03-12T07:39:16.449Z,7.01
2023-03-12T07:41:44.683Z,6.73
2023-03-12T07:44:12.450Z,7.01
2023-03-12T07:46:40.436Z,6.86
2023-03-12T07:49:09.656Z,7.18
2023-03-12T07:51:37.383Z,7.33
2023-03-12T07:54:05.347Z,7.37
2023-03-12T07:56:35.074Z,7.11
2023-03-12T07:59:03.770Z,7.20
2023-03-12T08:01:32.379Z,7.32
2023-03-12T08:04:00.262Z,7.16
2023-03-12T08:06:29.618Z,7.11
2023-03-12T08:08:59.275Z,7.06
2023-03-12T08:11:26.962Z,7.06
2023-03-12T08:13:54.671Z,6.94
2023-03-12T08:16:22.384Z,7.45
2023-03-12T08:18:52.296Z,6.52
2023-03-12T08:21:20.234Z,6.57
2023-03-12T08:23:49.325Z,6.36
2023-03-12T08:26:16.972Z,6.10
2023-03-12T08:28:44.974Z,6.27
2023-03-12T08:31:12.666Z,6.32
2023-03-12T08:33:43.509Z,6.30
2023-03-12T08:36:11.491Z,6.16
2023-03-12T08:38:39.274Z,6.18
2023-03-12T08:41:08.433Z,6.52
2023-03-12T08:43:36.143Z,6.35
2023-03-12T08:46:04.813Z,5.93
2023-03-12T08:48:33.250Z,6.13
2023-03-12T08:51:04.299Z,6.09
2023-03-12T08:53:33.032Z,6.11
2023-03-12T08:56:00.772Z,6.15
2023-03-12T08:58:30.464Z,6.04
2023-03-12T09:00:58.799Z,6.35
2023-03-12T09:03:27.262Z,5.88
2023-03-12T09:06:04.527Z,6.15
2023-03-12T09:08:34.034Z,6.16
2023-03-12T09:11:03.111Z,6.12
2023-03-12T09:13:50.789Z,5.92
2023-03-12T09:16:20.279Z,5.99
2023-03-12T09:18:48.162Z,6.33
2023-03-12T09:21:15.852Z,6.09
2023-03-12T09:23:43.593Z,6.67
2023-03-12T09:26:11.803Z,6.68
2023-03-12T09:28:40.924Z,6.76
2023-03-12T09:31:08.633Z,6.85
2023-03-12T09:33:36.347Z,6.69
2023-03-12T09:36:04.730Z,7.13
2023-03-12T09:38:35.385Z,6.77
2023-03-12T09:41:05.525Z,6.68
2023-03-12T09:43:38.596Z,6.92
2023-03-12T09:46:12.748Z,6.93
2023-03-12T09:48:40.668Z,7.66
2023-03-12T09:51:15.724Z,7.28
2023-03-12T09:53:47.160Z,6.90
2023-03-12T09:56:17.525Z,7.13
2023-03-12T09:58:48.290Z,6.82
2023-03-12T10:01:30.760Z,7.16
2023-03-12T10:04:07.374Z,7.32
2023-03-12T10:06:36.854Z,7.34
2023-03-12T10:09:13.844Z,7.23
2023-03-12T10:11:47.810Z,6.87
2023-03-12T10:14:26.666Z,7.00
2023-03-12T10:17:03.898Z,7.11
2023-03-12T10:19:47.849Z,7.27
2023-03-12T10:22:23.287Z,7.22
2023-03-12T10:24:57.519Z,7.09
2023-03-12T10:27:27.098Z,7.32
2023-03-12T10:29:56.123Z,6.92
2023-03-12T10:32:28.753Z,7.65
2023-03-12T10:34:58.030Z,7.79
2023-03-12T10:40:46.846Z,7.48
2023-03-12T10:43:14.497Z,7.56
2023-03-12T10:45:46.145Z,8.30
2023-03-12T10:48:20.474Z,7.57
2023-03-12T10:51:02.113Z,8.03
2023-03-12T10:53:32.270Z,7.74
2023-03-12T10:56:01.864Z,7.73
2023-03-12T10:58:33.999Z,7.85
2023-03-12T11:01:03.864Z,7.83
2023-03-12T11:03:33.918Z,7.58
2023-03-12T11:06:03.848Z,7.42
2023-03-12T11:08:35.775Z,7.65
2023-03-12T11:11:05.781Z,7.29
2023-03-12T11:13:34.845Z,7.77
2023-03-12T11:16:03.346Z,7.96
2023-03-12T11:18:34.668Z,7.70
2023-03-12T11:21:24.565Z,7.98
2023-03-12T11:24:11.681Z,7.69
2023-03-12T11:26:47.538Z,8.06
2023-03-12T11:29:28.282Z,7.94
2023-03-12T11:32:03.860Z,8.09
2023-03-12T11:34:35.874Z,8.40
2023-03-12T11:37:09.128Z,8.04
2023-03-12T11:39:45.509Z,8.61
2023-03-12T11:42:21.870Z,8.77
2023-03-12T11:44:56.468Z,8.50
2023-03-12T11:47:37.220Z,8.61
2023-03-12T11:50:16.799Z,8.82
2023-03-12T11:52:52.628Z,8.77
2023-03-12T11:55:24.019Z,9.12
2023-03-12T11:58:02.957Z,8.84
2023-03-12T12:00:35.170Z,9.02
2023-03-12T12:03:45.622Z,9.09
2023-03-12T12:06:19.156Z,8.95
2023-03-12T12:08:55.580Z,9.22
2023-03-12T12:11:29.499Z,9.12
2023-03-12T12:14:07.156Z,9.47
2023-03-12T12:16:48.633Z,9.09
2023-03-12T12:19:24.189Z,9.20
2023-03-12T12:22:05.069Z,9.22
2023-03-12T12:24:42.526Z,9.12
2023-03-12T12:30:11.202Z,8.82
2023-03-12T12:32:52.203Z,9.50
2023-03-12T12:35:26.850Z,9.19
2023-03-12T12:37:57.889Z,9.47
2023-03-12T12:40:30.240Z,9.34
2023-03-12T12:43:07.053Z,9.39
2023-03-12T12:45:34.711Z,9.41
2023-03-12T12:48:04.523Z,9.92
2023-03-12T12:50:35.886Z,9.84
2023-03-12T12:53:15.371Z,10.11
2023-03-12T12:55:48.046Z,10.59
2023-03-12T12:58:21.659Z,10.31
2023-03-12T13:00:51.093Z,9.90
2023-03-12T13:03:20.620Z,9.95
2023-03-12T13:05:56.074Z,10.18
2023-03-12T13:08:37.253Z,9.97
2023-03-12T13:11:18.325Z,10.02
2023-03-12T13:13:51.112Z,10.04
2023-03-12T13:16:22.624Z,9.85
2023-03-12T13:19:01.092Z,9.96
2023-03-12T13:21:34.335Z,9.91
2023-03-12T13:24:13.446Z,10.26
2023-03-12T13:26:52.293Z,10.63
2023-03-12T13:29:37.736Z,10.54
2023-03-12T13:32:06.345Z,10.82
2023-03-12T13:34:47.063Z,10.57
2023-03-12T13:37:29.471Z,10.91
2023-03-12T13:40:07.235Z,11.24
2023-03-12T13:42:41.893Z,11.04
2023-03-12T13:45:23.950Z,10.99
2023-03-12T13:47:55.885Z,11.03
2023-03-12T13:50:24.345Z,11.29
2023-03-12T13:53:02.107Z,10.95
2023-03-12T13:55:32.392Z,11.24
2023-03-12T13:58:05.153Z,11.53
2023-03-12T14:00:40.639Z,11.65
2023-03-12T14:03:14.064Z,11.24
2023-03-12T14:05:48.561Z,11.18
2023-03-12T14:08:36.309Z,11.40
2023-03-12T14:11:18.662Z,11.12
2023-03-12T14:14:10.597Z,11.48
2023-03-12T14:16:42.208Z,11.42
2023-03-12T14:19:12.062Z,11.78
2023-03-12T14:21:40.639Z,11.60
2023-03-12T14:24:11.870Z,11.70
2023-03-12T14:26:41.247Z,12.17
2023-03-12T14:32:04.632Z,12.47
2023-03-12T14:34:36.239Z,12.66
2023-03-12T14:37:06.172Z,12.27
2023-03-12T14:39:35.986Z,12.43
2023-03-12T14:42:07.883Z,12.68
2023-03-12T14:44:37.755Z,12.53
2023-03-12T14:47:10.097Z,12.54
2023-03-12T14:49:41.920Z,12.60
2023-03-12T14:52:12.598Z,12.81
2023-03-12T14:54:40.568Z,12.86
2023-03-12T14:57:15.577Z,12.75
2023-03-12T14:59:43.249Z,12.95
2023-03-12T15:02:14.576Z,13.00
2023-03-12T15:04:42.686Z,13.08
2023-03-12T15:07:13.047Z,12.83
2023-03-12T15:09:43.676Z,12.99
2023-03-12T15:12:39.838Z,12.96
2023-03-12T15:15:08.970Z,13.38
2023-03-12T15:17:37.031Z,13.02
2023-03-12T15:20:09.185Z,13.03
2023-03-12T15:22:38.051Z,13.38
2023-03-12T15:25:26.588Z,13.41
2023-03-12T15:28:06.769Z,13.31
2023-03-12T15:30:35.628Z,13.04
2023-03-12T15:33:08.161Z,13.16
2023-03-12T15:35:36.411Z,13.76
2023-03-12T15:38:04.650Z,14.05
2023-03-12T15:40:32.684Z,13.96
2023-03-12T15:43:03.291Z,14.02
2023-03-12T15:45:37.640Z,13.68
2023-03-12T15:48:13.609Z,13.28
2023-03-12T15:50:43.066Z,13.36
2023-03-12T15:53:26.760Z,13.21
2023-03-12T15:56:02.620Z,13.45
2023-03-12T15:58:31.970Z,13.51
2023-03-12T16:01:10.516Z,13.35
2023-03-12T16:03:38.981Z,13.13
2023-03-12T16:06:07.218Z,13.04
2023-03-12T16:08:39.859Z,13.58
2023-03-12T16:11:12.703Z,12.87
2023-03-12T16:13:42.028Z,13.03
2023-03-12T16:16:13.563Z,12.97
2023-03-12T16:18:41.683Z,12.95
2023-03-12T16:21:09.773Z,12.80
2023-03-12T16:23:38.084Z,13.24
2023-03-12T16:26:06.356Z,13.57
2023-03-12T16:28:35.480Z,13.24
2023-03-12T16:31:03.186Z,13.12
2023-03-12T16:36:43.762Z,13.03
2023-03-12T16:39:11.410Z,13.30
2023-03-12T16:41:39.403Z,13.18
2023-03-12T16:44:08.172Z,12.74
2023-03-12T16:46:36.263Z,12.98
2023-03-12T16:49:05.394Z,12.81
2023-03-12T16:51:33.129Z,12.97
2023-03-12T16:54:09.626Z,12.93
2023-03-12T16:56:38.334Z,12.67
2023-03-12T16:59:07.505Z,12.75
2023-03-12T17:01:35.303Z,12.77
2023-03-12T17:04:04.892Z,12.64
2023-03-12T17:06:34.577Z,12.54
2023-03-12T17:09:02.301Z,12.75
2023-03-12T17:11:32.898Z,12.63
2023-03-12T17:14:02.502Z,12.52
2023-03-12T17:16:30.219Z,12.77
2023-03-12T17:18:58.120Z,12.49
2023-03-12T17:21:25.779Z,12.48
2023-03-12T17:23:55.199Z,12.44
2023-03-12T17:26:22.896Z,12.71
2023-03-12T17:28:51.501Z,12.69
2023-03-12T17:31:19.147Z,12.36
2023-03-12T17:33:46.848Z,12.48
2023-03-12T17:36:14.484Z,12.25
2023-03-12T17:38:42.170Z,12.56
2023-03-12T17:41:25.537Z,12.33
2023-03-12T17:43:54.911Z,12.26
2023-03-12T17:46:23.126Z,12.40
2023-03-12T17:48:50.935Z,12.25
2023-03-12T17:51:18.599Z,12.42
2023-03-12T17:53:46.228Z,12.49
2023-03-12T17:56:17.930Z,12.39
2023-03-12T17:58:46.382Z,12.65
2023-03-12T18:01:14.072Z,12.58
2023-03-12T18:03:44.144Z,12.61
2023-03-12T18:09:30.261Z,12.58
2023-03-12T18:11:59.312Z,12.47
2023-03-12T18:14:26.957Z,12.57
2023-03-12T18:16:54.607Z,12.57
2023-03-12T18:19:23.663Z,12.54
2023-03-12T18:21:51.394Z,12.47
2023-03-12T18:24:19.044Z,12.61
2023-03-12T18:26:49.404Z,12.61
2023-03-12T18:29:18.496Z,12.65
2023-03-12T18:31:46.285Z,12.58
2023-03-12T18:34:13.972Z,12.70
2023-03-12T18:36:41.710Z,12.79
2023-03-12T18:39:09.820Z,12.71
2023-03-12T18:41:40.755Z,12.55
2023-03-12T18:44:09.451Z,12.51
2023-03-12T18:46:38.536Z,12.58
2023-03-12T18:49:07.658Z,12.42
2023-03-12T18:51:35.777Z,12.61
2023-03-12T18:54:03.721Z,12.46
2023-03-12T18:56:31.402Z,12.68
2023-03-12T18:58:59.038Z,12.46
2023-03-12T19:01:27.174Z,12.60
2023-03-12T19:03:56.379Z,12.79
2023-03-12T19:06:24.041Z,12.64
2023-03-12T19:08:51.702Z,12.77
2023-03-12T19:11:19.556Z,12.43
2023-03-12T19:13:52.186Z,12.45
2023-03-12T19:16:21.980Z,12.39
2023-03-12T19:18:52.577Z,12.62
2023-03-12T19:21:22.619Z,12.53
2023-03-12T19:23:50.662Z,12.46
2023-03-12T19:26:18.334Z,12.47
2023-03-12T19:28:46.380Z,12.72
2023-03-12T19:31:15.566Z,12.58
2023-03-12T19:33:44.220Z,12.45
2023-03-12T19:36:11.892Z,12.56
2023-03-12T19:38:41.440Z,12.67
2023-03-12T19:41:10.026Z,12.44
2023-03-12T19:43:52.642Z,12.47
2023-03-12T19:46:20.439Z,12.57
2023-03-12T19:48:48.193Z,12.36
2023-03-12T19:51:15.851Z,12.45
2023-03-12T19:53:45.180Z,12.51
2023-03-12T19:56:12.881Z,12.34
2023-03-12T19:58:40.571Z,12.60
2023-03-12T20:01:08.479Z,12.43
2023-03-12T20:03:43.159Z,12.49
2023-03-12T20:06:12.234Z,12.72
2023-03-12T20:08:40.003Z,12.66
2023-03-12T20:11:10.701Z,12.72
2023-03-12T20:13:39.336Z,12.45
2023-03-12T20:16:08.870Z,12.49
2023-03-12T20:18:36.659Z,12.40
2023-03-12T20:21:04.935Z,12.65
2023-03-12T20:23:55.886Z,12.57
2023-03-12T20:26:25.211Z,12.50
2023-03-12T20:28:53.082Z,12.48
2023-03-12T20:31:20.873Z,12.55
2023-03-12T20:33:48.775Z,12.47
2023-03-12T20:36:16.433Z,12.67
2023-03-12T20:38:44.383Z,12.61
2023-03-12T20:41:14.108Z,12.50
2023-03-12T20:43:43.859Z,12.71
2023-03-12T20:46:12.244Z,12.60
2023-03-12T20:48:40.138Z,12.59
2023-03-12T20:51:07.799Z,12.64
2023-03-12T20:53:35.470Z,12.81
2023-03-12T20:59:46.384Z,12.69
2023-03-12T21:02:15.113Z,12.44
2023-03-12T21:04:43.050Z,12.36
2023-03-12T21:07:10.765Z,12.63
2023-03-12T21:09:38.430Z,12.83
2023-03-12T21:12:06.426Z,12.60
2023-03-12T21:14:34.476Z,12.53
2023-03-12T21:17:03.633Z,12.77
2023-03-12T21:19:31.485Z,12.58
2023-03-12T21:21:59.194Z,12.71
2023-03-12T21:24:26.887Z,12.52
2023-03-12T21:26:54.572Z,12.73
2023-03-12T21:29:22.274Z,12.69
2023-03-12T21:31:53.718Z,12.63
2023-03-12T21:34:23.077Z,12.68
2023-03-12T21:36:50.883Z,12.74
2023-03-12T21:39:40.069Z,12.57
2023-03-12T21:42:07.712Z,12.88
2023-03-12T21:44:35.915Z,12.86
2023-03-12T21:47:03.620Z,12.78
2023-03-12T21:49:33.562Z,12.85
2023-03-12T21:52:01.295Z,12.89
2023-03-12T21:54:32.785Z,12.80
2023-03-12T21:57:02.659Z,12.77
2023-03-12T21:59:31.344Z,12.60
2023-03-12T22:01:59.490Z,12.54
2023-03-12T22:04:27.402Z,12.67
2023-03-12T22:06:56.676Z,12.57
2023-03-12T22:09:24.578Z,12.58
2023-03-12T22:11:52.254Z,12.70
2023-03-12T22:14:19.995Z,12.67
2023-03-12T22:16:47.720Z,12.81
2023-03-12T22:19:15.377Z,12.62
2023-03-12T22:21:43.590Z,12.74
2023-03-12T22:24:13.044Z,12.68
2023-03-12T22:26:40.762Z,12.58
2023-03-12T22:29:08.488Z,12.54
2023-03-12T22:31:36.329Z,12.64
2023-03-12T22:34:04.548Z,12.67
2023-03-12T22:36:32.222Z,12.47
2023-03-12T22:38:59.908Z,12.65
2023-03-12T22:41:30.466Z,12.57
2023-03-12T22:44:02.191Z,12.66
2023-03-12T22:46:30.399Z,12.51
2023-03-12T22:48:59.461Z,12.44
2023-03-12T22:51:27.828Z,12.55
2023-03-12T22:53:55.807Z,12.64
2023-03-12T22:56:24.396Z,12.62
2023-03-12T22:58:53.434Z,12.76
2023-03-12T23:01:22.769Z,12.68
2023-03-12T23:03:51.326Z,12.58
2023-03-12T23:06:20.646Z,12.68
2023-03-12T23:08:48.956Z,12.56
2023-03-12T23:11:17.118Z,12.74
2023-03-12T23:13:45.848Z,12.67
2023-03-12T23:16:17.318Z,12.56
2023-03-12T23:18:45.585Z,12.72
2023-03-12T23:21:14.964Z,12.65
2023-03-12T23:23:44.027Z,12.68
2023-03-12T23:26:19.334Z,12.74
2023-03-12T23:28:47.604Z,12.88
2023-03-12T23:31:17.364Z,12.57
2023-03-12T23:33:45.353Z,12.60
2023-03-12T23:36:15.067Z,12.81
2023-03-12T23:38:43.443Z,12.77
2023-03-12T23:41:39.525Z,12.76
2023-03-12T23:44:07.399Z,12.68
2023-03-12T23:46:36.591Z,12.72
2023-03-12T23:49:04.310Z,12.62
2023-03-12T23:51:33.706Z,12.67
2023-03-12T23:54:05.127Z,12.91
2023-03-12T23:56:34.848Z,12.83
2023-03-12T23:59:02.605Z,12.83
